createdAt,value
2023-02-03T00:01:08.347Z,-3.68
2023-02-03T00:03:40.021Z,-3.69
2023-02-03T00:06:10.012Z,-3.68
2023-02-03T00:08:40.230Z,-3.72
2023-02-03T00:11:09.912Z,-3.71
2023-02-03T00:13:40.019Z,-3.77
2023-02-03T00:16:09.836Z,-3.89
2023-02-03T00:18:41.503Z,-3.94
2023-02-03T00:21:11.195Z,-3.95
2023-02-03T00:23:41.453Z,-3.98
2023-02-03T00:26:11.229Z,-3.97
2023-02-03T00:28:42.917Z,-4.01
2023-02-03T00:31:16.676Z,-4.07
2023-02-03T00:33:48.267Z,-4.05
2023-02-03T00:36:20.394Z,-4.11
2023-02-03T00:38:50.545Z,-4.17
2023-02-03T00:41:20.413Z,-4.21
2023-02-03T00:43:50.921Z,-4.28
2023-02-03T00:46:20.817Z,-4.26
2023-02-03T00:48:52.904Z,-4.28
2023-02-03T00:51:22.990Z,-4.33
2023-02-03T00:53:57.874Z,-4.47
2023-02-03T00:56:27.644Z,-4.41
2023-02-03T00:58:57.611Z,-4.37
2023-02-03T01:01:27.478Z,-4.50
2023-02-03T01:03:59.552Z,-4.51
2023-02-03T01:06:29.415Z,-4.48
2023-02-03T01:08:59.525Z,-4.44
2023-02-03T01:11:29.377Z,-4.43
2023-02-03T01:14:02.110Z,-4.51
2023-02-03T01:16:36.281Z,-4.54
2023-02-03T01:19:08.716Z,-4.51
2023-02-03T01:21:38.495Z,-4.53
2023-02-03T01:24:09.943Z,-4.51
2023-02-03T01:26:41.566Z,-4.48
2023-02-03T01:29:11.812Z,-4.49
2023-02-03T01:31:42.639Z,-4.45
2023-02-03T01:34:16.691Z,-4.52
2023-02-03T01:36:47.032Z,-4.48
2023-02-03T01:39:17.172Z,-4.42
2023-02-03T01:41:48.603Z,-4.54
2023-02-03T01:44:40.115Z,-4.51
2023-02-03T01:47:28.305Z,-4.55
2023-02-03T01:50:01.832Z,-4.52
2023-02-03T01:52:31.893Z,-4.35
2023-02-03T01:55:04.406Z,-4.32
2023-02-03T01:57:36.033Z,-4.30
2023-02-03T02:00:06.834Z,-4.31
2023-02-03T02:02:43.687Z,-4.32
2023-02-03T02:05:20.293Z,-4.31
2023-02-03T02:07:50.303Z,-4.28
2023-02-03T02:10:20.357Z,-4.21
2023-02-03T02:12:50.342Z,-4.22
2023-02-03T02:15:24.832Z,-4.21
2023-02-03T02:18:08.873Z,-4.22
2023-02-03T02:20:58.862Z,-4.24
2023-02-03T02:23:53.073Z,-4.23
2023-02-03T02:26:50.058Z,-4.20
2023-02-03T02:29:47.163Z,-4.18
2023-02-03T02:32:27.282Z,-4.19
2023-02-03T02:35:03.921Z,-4.18
2023-02-03T02:37:40.092Z,-4.11
2023-02-03T02:40:12.942Z,-4.12
2023-02-03T02:42:48.303Z,-4.15
2023-02-03T02:45:21.723Z,-4.16
2023-02-03T02:47:57.213Z,-4.14
2023-02-03T02:50:30.136Z,-4.14
2023-02-03T02:53:00.703Z,-4.14
2023-02-03T02:55:33.051Z,-4.13
2023-02-03T02:58:08.375Z,-4.15
2023-02-03T03:00:38.887Z,-4.04
2023-02-03T03:03:12.960Z,-3.97
2023-02-03T03:05:43.662Z,-3.98
2023-02-03T03:08:18.529Z,-3.95
2023-02-03T03:10:48.857Z,-3.99
2023-02-03T03:13:22.474Z,-3.96
2023-02-03T03:15:53.942Z,-3.99
2023-02-03T03:18:28.414Z,-4.02
2023-02-03T03:20:59.874Z,-3.97
2023-02-03T03:23:32.229Z,-3.99
2023-02-03T03:26:05.803Z,-3.96
2023-02-03T03:28:39.144Z,-3.95
2023-02-03T03:31:08.875Z,-3.96
2023-02-03T03:33:40.466Z,-3.95
2023-02-03T03:36:14.031Z,-3.96
2023-02-03T03:38:46.197Z,-3.98
2023-02-03T03:41:18.458Z,-3.92
2023-02-03T03:43:48.891Z,-3.84
2023-02-03T03:46:21.036Z,-3.83
2023-02-03T03:48:54.449Z,-3.76
2023-02-03T03:51:27.352Z,-3.60
2023-02-03T03:53:59.434Z,-3.60
2023-02-03T03:56:31.042Z,-3.66
2023-02-03T03:59:03.271Z,-3.70
2023-02-03T04:01:33.961Z,-3.68
2023-02-03T04:04:08.423Z,-3.63
2023-02-03T04:06:40.112Z,-3.67
2023-02-03T04:09:10.162Z,-3.64
2023-02-03T04:11:56.948Z,-3.66
2023-02-03T04:14:27.407Z,-3.64
2023-02-03T04:16:57.111Z,-3.63
2023-02-03T04:19:29.044Z,-3.56
2023-02-03T04:21:58.817Z,-3.58
2023-02-03T04:24:28.884Z,-3.55
2023-02-03T04:26:58.774Z,-3.56
2023-02-03T04:29:28.761Z,-3.53
2023-02-03T04:31:58.673Z,-3.51
2023-02-03T04:34:30.214Z,-3.51
2023-02-03T04:37:00.152Z,-3.48
2023-02-03T04:39:30.252Z,-3.44
2023-02-03T04:41:59.853Z,-3.45
2023-02-03T04:44:29.862Z,-3.47
2023-02-03T04:46:59.552Z,-3.48
2023-02-03T04:49:30.959Z,-3.48
2023-02-03T04:52:00.555Z,-3.48
2023-02-03T04:54:30.502Z,-3.42
2023-02-03T04:57:00.222Z,-3.40
2023-02-03T04:59:30.273Z,-3.37
2023-02-03T05:02:00.025Z,-3.34
2023-02-03T05:04:31.614Z,-3.32
2023-02-03T05:07:01.212Z,-3.27
2023-02-03T05:09:31.410Z,-3.22
2023-02-03T05:12:01.029Z,-3.17
2023-02-03T05:14:30.931Z,-3.15
2023-02-03T05:17:00.621Z,-3.13
2023-02-03T05:19:32.052Z,-3.08
2023-02-03T05:22:01.567Z,-3.05
2023-02-03T05:24:31.530Z,-3.01
2023-02-03T05:27:01.282Z,-2.97
2023-02-03T05:29:31.269Z,-2.96
2023-02-03T05:32:00.874Z,-2.95
2023-02-03T05:34:32.311Z,-2.96
2023-02-03T05:37:03.730Z,-2.98
2023-02-03T05:39:33.793Z,-2.97
2023-02-03T05:42:03.661Z,-2.95
2023-02-03T05:44:33.625Z,-2.96
2023-02-03T05:47:03.398Z,-2.96
2023-02-03T05:49:34.980Z,-2.95
2023-02-03T05:52:04.794Z,-2.93
2023-02-03T05:54:34.862Z,-2.92
2023-02-03T05:57:04.622Z,-2.88
2023-02-03T05:59:34.634Z,-2.84
2023-02-03T06:02:04.302Z,-2.84
2023-02-03T06:04:35.765Z,-2.81
2023-02-03T06:07:05.373Z,-2.84
2023-02-03T06:09:35.573Z,-2.83
2023-02-03T06:12:05.412Z,-2.83
2023-02-03T06:14:35.424Z,-2.84
2023-02-03T06:17:05.277Z,-2.85
2023-02-03T06:19:36.712Z,-2.86
2023-02-03T06:22:06.458Z,-2.86
2023-02-03T06:24:36.916Z,-2.86
2023-02-03T06:27:06.787Z,-2.85
2023-02-03T06:29:36.855Z,-2.85
2023-02-03T06:32:07.312Z,-2.85
2023-02-03T06:34:38.958Z,-2.85
2023-02-03T06:37:08.670Z,-2.83
2023-02-03T06:39:38.756Z,-2.85
2023-02-03T06:42:08.339Z,-2.85
2023-02-03T06:44:38.285Z,-2.82
2023-02-03T06:47:08.052Z,-2.79
2023-02-03T06:49:39.670Z,-2.79
2023-02-03T06:52:09.494Z,-2.78
2023-02-03T06:54:39.620Z,-2.76
2023-02-03T06:57:09.224Z,-2.76
2023-02-03T06:59:39.436Z,-2.76
2023-02-03T07:02:09.311Z,-2.74
2023-02-03T07:04:41.029Z,-2.73
2023-02-03T07:07:11.042Z,-2.73
2023-02-03T07:09:42.181Z,-2.72
2023-02-03T07:12:11.932Z,-2.70
2023-02-03T07:14:41.847Z,-2.67
2023-02-03T07:17:11.695Z,-2.65
2023-02-03T07:19:46.185Z,-2.64
2023-02-03T07:22:15.885Z,-2.61
2023-02-03T07:24:45.798Z,-2.58
2023-02-03T07:27:15.451Z,-2.54
2023-02-03T07:29:45.578Z,-2.52
2023-02-03T07:32:15.665Z,-2.50
2023-02-03T07:34:47.152Z,-2.48
2023-02-03T07:37:17.410Z,-2.44
2023-02-03T07:39:48.853Z,-2.40
2023-02-03T07:42:19.531Z,-2.38
2023-02-03T07:44:53.288Z,-2.35
2023-02-03T07:47:23.785Z,-2.31
2023-02-03T07:49:55.725Z,-2.30
2023-02-03T07:52:25.409Z,-2.27
2023-02-03T07:54:55.294Z,-2.22
2023-02-03T07:57:25.010Z,-2.18
2023-02-03T07:59:55.265Z,-2.15
2023-02-03T08:02:25.096Z,-2.12
2023-02-03T08:04:58.318Z,-2.09
2023-02-03T08:07:28.340Z,-2.04
2023-02-03T08:09:58.392Z,-2.03
2023-02-03T08:12:28.059Z,-1.99
2023-02-03T08:14:58.068Z,-1.98
2023-02-03T08:17:27.966Z,-1.97
2023-02-03T08:19:59.397Z,-1.91
2023-02-03T08:22:28.931Z,-1.88
2023-02-03T08:24:59.246Z,-1.85
2023-02-03T08:27:29.062Z,-1.84
2023-02-03T08:29:59.301Z,-1.82
2023-02-03T08:32:28.951Z,-1.77
2023-02-03T08:35:00.472Z,-1.73
2023-02-03T08:37:32.036Z,-1.70
2023-02-03T08:40:02.227Z,-1.67
2023-02-03T08:42:32.403Z,-1.63
2023-02-03T08:45:05.573Z,-1.62
2023-02-03T08:47:37.083Z,-1.57
2023-02-03T08:50:11.321Z,-1.56
2023-02-03T08:52:41.636Z,-1.52
2023-02-03T08:55:12.373Z,-1.50
2023-02-03T08:57:42.695Z,-1.73
2023-02-03T09:00:13.521Z,-1.47
2023-02-03T09:02:43.173Z,-1.47
2023-02-03T09:05:16.303Z,-1.47
2023-02-03T09:07:46.072Z,-1.48
2023-02-03T09:10:16.131Z,-1.46
2023-02-03T09:12:45.851Z,-1.48
2023-02-03T09:15:16.782Z,-1.46
2023-02-03T09:17:47.164Z,-1.47
2023-02-03T09:20:19.819Z,-1.44
2023-02-03T09:22:49.585Z,-1.41
2023-02-03T09:25:21.021Z,-1.41
2023-02-03T09:27:53.673Z,-1.40
2023-02-03T09:30:23.977Z,-1.35
2023-02-03T09:32:57.253Z,-1.35
2023-02-03T09:35:31.170Z,-1.33
2023-02-03T09:38:03.662Z,-1.33
2023-02-03T09:40:35.791Z,-1.34
2023-02-03T09:43:16.671Z,-1.31
2023-02-03T09:45:46.989Z,-1.31
2023-02-03T09:48:19.412Z,-1.34
2023-02-03T09:50:52.159Z,-1.33
2023-02-03T09:53:27.286Z,-1.30
2023-02-03T09:55:58.780Z,-1.31
2023-02-03T09:58:30.671Z,-1.28
2023-02-03T10:01:01.542Z,-1.28
2023-02-03T10:03:34.628Z,-1.29
2023-02-03T10:06:11.116Z,-1.29
2023-02-03T10:09:03.829Z,-1.30
2023-02-03T10:11:45.154Z,-1.34
2023-02-03T10:14:25.139Z,-1.33
2023-02-03T10:17:01.454Z,-1.39
2023-02-03T10:19:38.672Z,-1.40
2023-02-03T10:22:15.759Z,-1.44
2023-02-03T10:24:48.949Z,-1.44
2023-02-03T10:27:21.240Z,-1.45
2023-02-03T10:29:56.958Z,-1.45
2023-02-03T10:32:28.660Z,-1.44
2023-02-03T10:34:59.427Z,-1.45
2023-02-03T10:37:33.147Z,-1.48
2023-02-03T10:40:03.450Z,-1.47
2023-02-03T10:42:49.818Z,-1.48
2023-02-03T10:45:20.719Z,-1.48
2023-02-03T10:47:53.585Z,-1.48
2023-02-03T10:50:24.992Z,-1.49
2023-02-03T10:53:16.638Z,-1.52
2023-02-03T10:55:50.105Z,-1.48
2023-02-03T10:58:27.244Z,-1.50
2023-02-03T11:00:58.540Z,-1.50
2023-02-03T11:03:30.089Z,-1.51
2023-02-03T11:06:10.756Z,-1.48
2023-02-03T11:08:43.345Z,-1.43
2023-02-03T11:11:15.796Z,-1.44
2023-02-03T11:13:45.838Z,-1.40
2023-02-03T11:16:17.689Z,-1.38
2023-02-03T11:18:54.339Z,-1.36
2023-02-03T11:21:25.433Z,-1.35
2023-02-03T11:24:04.110Z,-1.35
2023-02-03T11:26:36.260Z,-1.34
2023-02-03T11:29:08.628Z,-1.37
2023-02-03T11:31:39.274Z,-1.34
2023-02-03T11:34:16.420Z,-1.39
2023-02-03T11:36:46.380Z,-1.38
2023-02-03T11:39:27.166Z,-1.36
2023-02-03T11:41:57.447Z,-1.38
2023-02-03T11:44:29.929Z,-1.38
2023-02-03T11:47:03.051Z,-1.38
2023-02-03T11:49:51.170Z,-1.35
2023-02-03T11:52:34.118Z,-1.37
2023-02-03T11:55:11.896Z,-1.38
2023-02-03T11:57:46.274Z,-1.39
2023-02-03T12:00:23.189Z,-1.39
2023-02-03T12:03:03.348Z,-1.38
2023-02-03T12:05:39.843Z,-1.36
2023-02-03T12:08:14.237Z,-1.36
2023-02-03T12:10:50.680Z,-1.37
2023-02-03T12:13:29.273Z,-1.38
2023-02-03T12:16:28.421Z,-1.36
2023-02-03T12:19:06.730Z,-1.36
2023-02-03T12:21:54.972Z,-1.38
2023-02-03T12:24:36.277Z,-1.36
2023-02-03T12:27:16.397Z,-1.32
2023-02-03T12:29:49.520Z,-1.34
2023-02-03T12:32:25.027Z,-1.32
2023-02-03T12:35:01.897Z,-1.32
2023-02-03T12:37:36.084Z,-1.30
2023-02-03T12:40:30.741Z,-1.29
2023-02-03T12:43:06.681Z,-1.29
2023-02-03T12:45:40.261Z,-1.28
2023-02-03T12:48:13.821Z,-1.31
2023-02-03T12:50:46.348Z,-1.29
2023-02-03T12:53:23.211Z,-1.30
2023-02-03T12:55:56.246Z,-1.31
2023-02-03T12:58:34.745Z,-1.29
2023-02-03T13:01:07.096Z,-1.31
2023-02-03T13:03:43.687Z,-1.33
2023-02-03T13:06:18.591Z,-1.29
2023-02-03T13:08:55.886Z,-1.29
2023-02-03T13:11:30.649Z,-1.36
2023-02-03T13:14:07.072Z,-1.34
2023-02-03T13:16:44.128Z,-1.32
2023-02-03T13:19:17.415Z,-1.30
2023-02-03T13:21:49.687Z,-1.30
2023-02-03T13:24:21.407Z,-1.30
2023-02-03T13:27:01.155Z,-1.31
2023-02-03T13:30:07.291Z,-1.30
2023-02-03T13:35:52.528Z,-1.28
2023-02-03T13:38:39.163Z,-1.27
2023-02-03T13:41:11.738Z,-1.29
2023-02-03T13:43:47.856Z,-1.26
2023-02-03T13:46:25.785Z,-1.28
2023-02-03T13:49:02.017Z,-1.28
2023-02-03T13:51:36.077Z,-1.29
2023-02-03T13:54:08.079Z,-1.27
2023-02-03T13:56:40.438Z,-1.28
2023-02-03T13:59:32.711Z,-1.28
2023-02-03T14:02:29.716Z,-1.29
2023-02-03T14:05:02.369Z,-1.29
2023-02-03T14:07:34.828Z,-1.27
2023-02-03T14:10:17.345Z,-1.29
2023-02-03T14:13:00.932Z,-1.30
2023-02-03T14:15:37.987Z,-1.30
2023-02-03T14:18:28.551Z,-1.30
2023-02-03T14:21:11.701Z,-1.32
2023-02-03T14:23:45.321Z,-1.32
2023-02-03T14:26:42.835Z,-1.33
2023-02-03T14:29:26.801Z,-1.34
2023-02-03T14:32:00.657Z,-1.36
2023-02-03T14:34:32.841Z,-1.33
2023-02-03T14:37:17.088Z,-1.36
2023-02-03T14:40:07.434Z,-1.34
2023-02-03T14:42:50.527Z,-1.36
2023-02-03T14:45:32.948Z,-1.37
2023-02-03T14:48:13.133Z,-1.38
2023-02-03T14:51:00.137Z,-1.37
2023-02-03T14:53:40.185Z,-1.38
2023-02-03T14:56:17.507Z,-1.39
2023-02-03T14:58:50.230Z,-1.39
2023-02-03T15:01:29.554Z,-1.39
2023-02-03T15:04:14.899Z,-1.38
2023-02-03T15:06:46.748Z,-1.39
2023-02-03T15:09:23.643Z,-1.39
2023-02-03T15:12:21.589Z,-1.73
2023-02-03T15:14:51.671Z,-1.40
2023-02-03T15:17:25.043Z,-1.40
2023-02-03T15:19:59.002Z,-1.41
2023-02-03T15:22:30.820Z,-1.40
2023-02-03T15:25:04.510Z,-1.43
2023-02-03T15:30:38.332Z,-1.40
2023-02-03T15:33:16.344Z,-1.42
2023-02-03T15:35:48.353Z,-1.42
2023-02-03T15:38:22.734Z,-1.79
2023-02-03T15:41:02.710Z,-1.40
2023-02-03T15:43:39.048Z,-1.43
2023-02-03T15:46:18.494Z,-1.42
2023-02-03T15:48:54.188Z,-1.44
2023-02-03T15:51:27.326Z,-1.43
2023-02-03T15:54:00.496Z,-1.44
2023-02-03T15:57:03.773Z,-1.45
2023-02-03T15:59:38.946Z,-1.45
2023-02-03T16:02:17.030Z,-1.45
2023-02-03T16:04:59.660Z,-1.43
2023-02-03T16:07:37.260Z,-1.62
2023-02-03T16:10:29.629Z,-1.44
2023-02-03T16:13:24.816Z,-1.45
2023-02-03T16:16:19.942Z,-1.43
2023-02-03T16:19:22.260Z,-1.42
2023-02-03T16:22:11.203Z,-1.44
2023-02-03T16:25:24.380Z,-1.42
2023-02-03T16:28:18.641Z,-1.44
2023-02-03T16:31:33.744Z,-1.42
2023-02-03T16:34:33.228Z,-1.40
2023-02-03T16:37:37.419Z,-1.40
2023-02-03T16:40:31.728Z,-1.39
2023-02-03T16:43:22.592Z,-1.37
2023-02-03T16:46:17.115Z,-1.37
2023-02-03T16:49:11.361Z,-1.37
2023-02-03T16:51:45.791Z,-1.32
2023-02-03T16:54:18.823Z,-1.34
2023-02-03T16:56:49.774Z,-1.36
2023-02-03T16:59:19.880Z,-1.37
2023-02-03T17:01:50.692Z,-1.34
2023-02-03T17:04:24.241Z,-1.34
2023-02-03T17:06:55.803Z,-1.35
2023-02-03T17:09:27.823Z,-1.37
2023-02-03T17:12:10.182Z,-1.38
2023-02-03T17:14:49.961Z,-1.37
2023-02-03T17:17:20.366Z,-1.38
2023-02-03T17:19:50.654Z,-1.37
2023-02-03T17:22:20.773Z,-1.39
2023-02-03T17:24:53.124Z,-1.40
2023-02-03T17:27:25.434Z,-1.36
2023-02-03T17:30:03.200Z,-1.37
2023-02-03T17:32:34.373Z,-1.39
2023-02-03T17:35:07.982Z,-1.42
2023-02-03T17:37:43.312Z,-1.43
2023-02-03T17:54:22.533Z,-1.44
2023-02-03T17:57:03.433Z,-1.47
2023-02-03T17:59:38.315Z,-1.48
2023-02-03T18:02:33.677Z,-1.48
2023-02-03T18:05:05.627Z,-1.49
2023-02-03T18:07:40.403Z,-1.49
2023-02-03T18:10:23.298Z,-1.50
2023-02-03T18:12:56.458Z,-1.48
2023-02-03T18:15:39.043Z,-1.48
2023-02-03T18:18:11.727Z,-1.48
2023-02-03T18:20:42.017Z,-1.50
2023-02-03T18:23:15.476Z,-1.52
2023-02-03T18:25:48.408Z,-1.54
2023-02-03T18:28:24.500Z,-1.54
2023-02-03T18:31:02.024Z,-1.56
2023-02-03T18:33:33.776Z,-1.58
2023-02-03T18:36:06.248Z,-1.58
2023-02-03T18:38:37.310Z,-1.60
2023-02-03T18:41:10.589Z,-1.60
2023-02-03T18:43:42.306Z,-1.60
2023-02-03T18:46:13.745Z,-1.60
2023-02-03T18:48:48.322Z,-1.59
2023-02-03T18:51:21.997Z,-1.58
2023-02-03T18:53:54.975Z,-1.63
2023-02-03T18:56:35.860Z,-1.62
2023-02-03T18:59:21.934Z,-1.64
2023-02-03T19:01:54.578Z,-1.60
2023-02-03T19:04:27.921Z,-1.65
2023-02-03T19:07:04.151Z,-1.64
2023-02-03T19:09:36.907Z,-1.62
2023-02-03T19:12:12.368Z,-1.60
2023-02-03T19:14:46.886Z,-1.62
2023-02-03T19:17:20.348Z,-1.55
2023-02-03T19:19:55.401Z,-1.61
2023-02-03T19:22:27.882Z,-1.61
2023-02-03T19:24:57.910Z,-1.59
2023-02-03T19:27:28.960Z,-1.54
2023-02-03T19:30:00.666Z,-1.59
2023-02-03T19:32:32.620Z,-1.59
2023-02-03T19:35:02.704Z,-1.60
2023-02-03T19:37:32.942Z,-1.55
2023-02-03T19:40:06.585Z,-1.56
2023-02-03T19:42:40.467Z,-1.59
2023-02-03T19:45:13.488Z,-1.58
2023-02-03T19:47:46.441Z,-1.59
2023-02-03T19:50:17.669Z,-1.58
2023-02-03T19:52:49.863Z,-1.56
2023-02-03T19:55:21.182Z,-1.56
2023-02-03T19:57:51.714Z,-1.56
2023-02-03T20:00:24.239Z,-1.57
2023-02-03T20:06:40.544Z,-1.55
2023-02-03T20:09:12.461Z,-1.54
2023-02-03T20:11:42.747Z,-1.51
2023-02-03T20:14:15.832Z,-1.48
2023-02-03T20:16:50.992Z,-1.40
2023-02-03T20:19:22.933Z,-1.39
2023-02-03T20:21:53.341Z,-1.37
2023-02-03T20:24:24.629Z,-1.32
2023-02-03T20:26:57.689Z,-1.27
2023-02-03T20:29:30.018Z,-1.28
2023-02-03T20:32:05.031Z,-1.27
2023-02-03T20:34:38.448Z,-1.27
2023-02-03T20:37:12.119Z,-1.21
2023-02-03T20:39:42.907Z,-1.22
2023-02-03T20:42:18.611Z,-1.22
2023-02-03T20:44:50.244Z,-1.24
2023-02-03T20:47:23.722Z,-1.28
2023-02-03T20:50:23.696Z,-1.26
2023-02-03T20:52:58.021Z,-1.27
2023-02-03T20:55:28.551Z,-1.24
2023-02-03T20:58:05.595Z,-1.24
2023-02-03T21:00:36.237Z,-1.25
2023-02-03T21:03:28.058Z,-1.28
2023-02-03T21:05:58.201Z,-1.26
2023-02-03T21:08:30.430Z,-1.29
2023-02-03T21:11:01.282Z,-1.24
2023-02-03T21:13:36.126Z,-1.24
2023-02-03T21:16:15.789Z,-1.17
2023-02-03T21:18:49.295Z,-1.17
2023-02-03T21:21:24.215Z,-1.17
2023-02-03T21:23:58.726Z,-1.15
2023-02-03T21:26:31.287Z,-1.12
2023-02-03T21:29:02.764Z,-1.13
2023-02-03T21:31:33.681Z,-1.14
2023-02-03T21:34:13.524Z,-1.20
2023-02-03T21:36:43.692Z,-1.25
2023-02-03T21:39:28.557Z,-1.24
2023-02-03T21:41:59.014Z,-1.25
2023-02-03T21:44:33.335Z,-1.28
2023-02-03T21:47:05.567Z,-1.26
2023-02-03T21:49:39.690Z,-1.25
2023-02-03T21:52:13.194Z,-1.27
2023-02-03T21:54:45.064Z,-1.26
2023-02-03T21:57:15.674Z,-1.22
2023-02-03T21:59:47.240Z,-1.24
2023-02-03T22:02:45.891Z,-1.22
2023-02-03T22:05:17.975Z,-1.19
2023-02-03T22:07:47.800Z,-1.14
2023-02-03T22:10:17.947Z,-1.11
2023-02-03T22:12:47.927Z,-1.08
2023-02-03T22:15:17.902Z,-1.04
2023-02-03T22:17:50.039Z,-1.02
2023-02-03T22:20:21.803Z,-1.01
2023-02-03T22:22:51.513Z,-1.00
2023-02-03T22:25:21.581Z,-1.01
2023-02-03T22:27:52.962Z,-0.98
2023-02-03T22:30:23.475Z,-0.97
2023-02-03T22:32:53.223Z,-0.90
2023-02-03T22:35:24.733Z,-0.85
2023-02-03T22:37:54.513Z,-0.93
2023-02-03T22:40:24.961Z,-0.93
2023-02-03T22:42:55.252Z,-0.93
2023-02-03T22:45:25.310Z,-0.96
2023-02-03T22:47:57.149Z,-0.97
2023-02-03T22:50:35.985Z,-0.94
2023-02-03T22:53:09.590Z,-0.97
2023-02-03T22:55:39.858Z,-0.91
2023-02-03T22:58:09.590Z,-0.90
2023-02-03T23:00:39.833Z,-0.94
2023-02-03T23:03:09.678Z,-0.97
2023-02-03T23:05:41.184Z,-0.91
2023-02-03T23:08:11.223Z,-0.92
2023-02-03T23:10:42.504Z,-0.99
2023-02-03T23:13:12.179Z,-0.95
2023-02-03T23:15:42.422Z,-0.89
2023-02-03T23:18:12.119Z,-0.87
2023-02-03T23:20:43.641Z,-0.89
2023-02-03T23:23:15.833Z,-0.88
2023-02-03T23:25:45.884Z,-0.86
2023-02-03T23:28:15.823Z,-0.91
2023-02-03T23:30:46.026Z,-0.83
2023-02-03T23:33:15.654Z,-0.83
2023-02-03T23:35:46.126Z,-0.89
2023-02-03T23:38:16.125Z,-0.91
2023-02-03T23:40:46.288Z,-0.93
2023-02-03T23:43:18.192Z,-0.91
2023-02-03T23:45:48.348Z,-0.88
2023-02-03T23:48:18.508Z,-0.91
2023-02-03T23:50:50.657Z,-0.87
2023-02-03T23:53:21.505Z,-0.85
2023-02-03T23:55:51.526Z,-0.79
2023-02-03T23:58:21.260Z,-0.81
